Arnolds Park, Iowa
Current Conditions -  °F | °C
As of 3:53 PM on Thursday 18 Dec 2014 (Local Time) from KSPW Reporting Station
Overcast Overcast  
Wind Chill: 22°   Ceiling: 8000
Heat Index: 27°   Visibility: 10mi
Dew Point: 20°   Wind: 5mph
Humidity: 75%   Direction: 170°S
Pressure: 30.2"   Gusts: NA
Location:  43.37°N, 95.12°W
Report Text: KSPW 182153Z AUTO 17004KT 10SM SCT034 OVC080 M03/M07 A3020 RMK AO2 SLP249 T10281067 TSNO
Loading
Personal Weather Stations






























Interactive Weather Map New forecast layout! Learn more

10-Day Weather Forecast

Advertisements
Track Severe Weather on mobile